Time;durP1;ratioP1;P1;durP2;ratioP2;P2;SDS_P1;SDS_P2;PMS_P1;PMS_P2;Temp;Humidity;BMP_temperature;BMP_pressure;BME280_temperature;BME280_humidity;BME280_pressure;Samples;Min_cycle;Max_cycle;Signal;HPM_P1;HPM_P2
2021/09/02 00:01:41;;;;;;;13.40;8.40;;;17.70;85.80;;;;;;4993813;28;20057;-78
2021/09/02 00:04:06;;;;;;;16.65;8.60;;;17.70;85.90;;;;;;4995029;28;20026;-79
2021/09/02 00:06:32;;;;;;;14.52;7.78;;;17.70;85.90;;;;;;4993906;28;20050;-79
2021/09/02 00:08:58;;;;;;;17.17;9.30;;;17.70;86.00;;;;;;4993979;28;20031;-79
2021/09/02 00:11:23;;;;;;;13.18;8.40;;;17.60;86.70;;;;;;4995011;28;20058;-78
2021/09/02 00:13:49;;;;;;;12.95;8.75;;;17.60;86.20;;;;;;4993594;28;20474;-78
2021/09/02 00:16:15;;;;;;;14.50;8.32;;;17.70;86.30;;;;;;4993854;28;20045;-78
2021/09/02 00:18:40;;;;;;;11.73;7.72;;;17.70;86.40;;;;;;4994795;28;20047;-78
2021/09/02 00:21:06;;;;;;;12.93;7.90;;;17.70;86.40;;;;;;4994768;28;20109;-79
2021/09/02 00:23:32;;;;;;;15.45;8.68;;;17.60;86.40;;;;;;4994736;28;20031;-78
2021/09/02 00:25:57;;;;;;;20.55;8.93;;;17.60;86.40;;;;;;4994801;28;20037;-78
2021/09/02 00:28:23;;;;;;;14.18;8.90;;;17.60;86.50;;;;;;5010066;28;20038;-78
2021/09/02 00:30:49;;;;;;;15.40;9.05;;;17.70;86.60;;;;;;4977232;28;20438;-78
2021/09/02 00:33:16;;;;;;;18.15;8.77;;;17.60;86.60;;;;;;4994729;28;20430;-78
2021/09/02 00:35:42;;;;;;;12.63;8.55;;;17.60;86.70;;;;;;4994585;28;20486;-78
2021/09/02 00:38:08;;;;;;;12.55;8.27;;;17.60;86.70;;;;;;4993400;28;20034;-78
2021/09/02 00:40:34;;;;;;;14.40;8.93;;;17.60;86.80;;;;;;4976925;28;20037;-78
2021/09/02 00:42:59;;;;;;;19.27;8.98;;;17.60;86.90;;;;;;4994381;28;20399;-78
2021/09/02 00:45:25;;;;;;;16.30;9.30;;;17.60;87.60;;;;;;4994589;28;20022;-78
2021/09/02 00:47:51;;;;;;;18.95;9.18;;;17.50;87.00;;;;;;4993238;28;20387;-78
2021/09/02 00:50:17;;;;;;;14.50;9.55;;;17.60;87.10;;;;;;4992944;28;20026;-78
2021/09/02 00:52:43;;;;;;;17.50;9.52;;;17.50;87.10;;;;;;4992827;28;20592;-78
2021/09/02 00:55:09;;;;;;;14.68;9.73;;;17.60;87.30;;;;;;4976941;28;20022;-79
2021/09/02 00:57:35;;;;;;;14.48;8.50;;;17.50;87.30;;;;;;4976434;28;20034;-78
2021/09/02 01:00:09;;;;;;;15.15;9.32;;;17.50;87.40;;;;;;4992990;28;20117;-78
2021/09/02 01:02:34;;;;;;;14.00;8.18;;;17.50;87.60;;;;;;4992791;28;20109;-78
2021/09/02 01:05:00;;;;;;;18.17;9.48;;;17.50;87.50;;;;;;4993062;28;20505;-78
2021/09/02 01:07:29;;;;;;;18.10;9.52;;;17.50;87.60;;;;;;4992816;28;20033;-78
2021/09/02 01:09:56;;;;;;;14.93;9.02;;;17.50;87.60;;;;;;4994233;28;20038;-78
2021/09/02 01:12:54;;;;;;;15.65;9.65;;;17.50;87.60;;;;;;4994478;28;20101;-78
2021/09/02 01:15:25;;;;;;;14.63;8.02;;;17.40;87.80;;;;;;4993036;28;20066;-78
2021/09/02 01:17:56;;;;;;;15.90;9.60;;;17.40;87.80;;;;;;5008914;28;20482;-78
2021/09/02 01:20:24;;;;;;;14.18;8.43;;;17.40;87.80;;;;;;4977271;28;20054;-78
2021/09/02 01:22:52;;;;;;;15.27;8.52;;;17.40;87.80;;;;;;4992631;28;20022;-78
2021/09/02 01:25:23;;;;;;;17.27;8.85;;;17.40;87.80;;;;;;4993686;28;20033;-74
2021/09/02 01:27:51;;;;;;;15.52;8.88;;;17.40;87.80;;;;;;5009246;28;20030;-74
2021/09/02 01:30:18;;;;;;;15.88;8.98;;;17.40;87.80;;;;;;5013363;28;20052;-74
2021/09/02 01:32:46;;;;;;;17.25;7.95;;;17.40;87.80;;;;;;5011668;28;20116;-74
2021/09/02 01:35:12;;;;;;;14.63;9.18;;;17.30;87.90;;;;;;5011289;28;20080;-74
2021/09/02 01:37:41;;;;;;;15.55;9.07;;;17.30;88.00;;;;;;5028623;28;20057;-75
2021/09/02 01:40:09;;;;;;;13.13;8.65;;;17.30;88.10;;;;;;5012112;28;20022;-75
2021/09/02 01:42:35;;;;;;;15.43;8.60;;;17.30;88.10;;;;;;5012231;28;20022;-74
2021/09/02 01:45:01;;;;;;;13.30;7.47;;;17.30;88.00;;;;;;5010967;28;20026;-74
2021/09/02 01:47:27;;;;;;;17.38;8.65;;;17.30;87.90;;;;;;5011964;28;20026;-75
2021/09/02 01:50:02;;;;;;;16.52;8.15;;;17.30;87.80;;;;;;5012027;28;20433;-74
2021/09/02 01:52:29;;;;;;;12.68;7.90;;;17.30;87.80;;;;;;5028206;28;20435;-75
2021/09/02 01:54:55;;;;;;;14.70;7.38;;;17.30;87.80;;;;;;5009987;28;20080;-74
2021/09/02 01:57:20;;;;;;;13.50;7.90;;;17.20;87.70;;;;;;4995878;28;20430;-74
2021/09/02 01:59:46;;;;;;;12.57;8.38;;;17.30;87.70;;;;;;5013186;28;20532;-75
2021/09/02 02:02:12;;;;;;;11.40;7.25;;;17.20;87.70;;;;;;4995910;28;20034;-74
2021/09/02 02:04:37;;;;;;;10.65;7.03;;;17.30;87.80;;;;;;5025517;28;20034;-74
2021/09/02 02:07:03;;;;;;;13.02;7.30;;;17.30;87.70;;;;;;5013336;28;20505;-75
2021/09/02 02:09:29;;;;;;;15.20;7.72;;;17.20;87.70;;;;;;4995874;28;20049;-74
2021/09/02 02:11:54;;;;;;;12.05;7.32;;;17.20;87.70;;;;;;5016862;28;20038;-75
2021/09/02 02:14:20;;;;;;;14.32;7.15;;;17.20;87.70;;;;;;5013909;28;20034;-75
2021/09/02 02:16:46;;;;;;;11.70;7.43;;;17.20;87.70;;;;;;5016695;28;20084;-75
2021/09/02 02:19:12;;;;;;;12.38;6.80;;;17.20;87.70;;;;;;5013212;28;20136;-75
2021/09/02 02:21:38;;;;;;;16.88;7.05;;;17.20;87.70;;;;;;5012702;28;20030;-75
2021/09/02 02:24:04;;;;;;;12.77;7.60;;;17.10;87.60;;;;;;4996922;28;20034;-75
2021/09/02 02:26:29;;;;;;;11.10;6.55;;;17.20;87.70;;;;;;5001070;28;20399;-75
2021/09/02 02:28:55;;;;;;;13.90;7.38;;;17.10;87.70;;;;;;5014014;28;20127;-75
2021/09/02 02:31:21;;;;;;;15.95;6.93;;;17.10;87.70;;;;;;5011877;28;20053;-75
2021/09/02 02:33:47;;;;;;;12.93;7.07;;;17.10;87.90;;;;;;5029131;28;20033;-75
2021/09/02 02:36:12;;;;;;;12.35;6.47;;;17.10;88.00;;;;;;4997545;28;20033;-75
2021/09/02 02:38:38;;;;;;;13.43;6.60;;;17.00;88.00;;;;;;4999104;28;20033;-75
2021/09/02 02:41:04;;;;;;;14.65;7.95;;;17.10;88.20;;;;;;5016201;28;20064;-75
2021/09/02 02:43:29;;;;;;;11.43;6.18;;;17.10;88.20;;;;;;4999157;28;20030;-74
2021/09/02 02:45:57;;;;;;;13.40;7.75;;;17.10;88.20;;;;;;4999218;28;20022;-75
2021/09/02 02:48:23;;;;;;;13.88;6.85;;;17.10;88.40;;;;;;5014113;28;20356;-75
2021/09/02 02:50:49;;;;;;;11.80;7.22;;;17.10;88.30;;;;;;5016160;28;20451;-75
2021/09/02 02:53:15;;;;;;;14.40;6.82;;;17.10;88.30;;;;;;5016393;28;20081;-75
2021/09/02 02:55:40;;;;;;;13.68;6.97;;;17.10;88.40;;;;;;5015911;28;20034;-75
2021/09/02 02:58:06;;;;;;;13.52;7.43;;;17.10;88.50;;;;;;4998641;28;20113;-75
2021/09/02 03:00:32;;;;;;;20.52;6.95;;;17.00;88.60;;;;;;5014862;28;20091;-75
2021/09/02 03:02:57;;;;;;;11.02;6.57;;;17.00;88.90;;;;;;5014905;28;20494;-74
2021/09/02 03:05:23;;;;;;;12.50;6.65;;;17.00;89.00;;;;;;5016217;28;20463;-75
2021/09/02 03:07:48;;;;;;;11.60;6.35;;;17.10;89.10;;;;;;4998427;28;20075;-75
2021/09/02 03:10:14;;;;;;;13.43;7.43;;;17.00;89.10;;;;;;5030781;28;20026;-75
2021/09/02 03:12:40;;;;;;;13.77;7.25;;;17.00;89.20;;;;;;5015733;28;20030;-75
2021/09/02 03:15:07;;;;;;;13.95;7.60;;;17.00;89.20;;;;;;5014454;28;20034;-75
2021/09/02 03:17:33;;;;;;;12.50;6.90;;;17.10;89.40;;;;;;5015373;28;20029;-75
2021/09/02 03:19:59;;;;;;;13.70;7.22;;;17.00;89.40;;;;;;5014390;28;20085;-75
2021/09/02 03:22:24;;;;;;;12.73;6.88;;;17.00;89.50;;;;;;5015934;28;20034;-79
2021/09/02 03:24:50;;;;;;;16.23;7.95;;;17.00;89.50;;;;;;5014398;28;20030;-79
2021/09/02 03:27:16;;;;;;;14.63;7.80;;;17.10;89.70;;;;;;5015581;28;20080;-79
2021/09/02 03:29:42;;;;;;;17.10;7.75;;;17.00;89.80;;;;;;5015520;28;20026;-75
2021/09/02 03:32:08;;;;;;;16.02;8.65;;;17.00;90.20;;;;;;5014275;28;20034;-75
2021/09/02 03:34:33;;;;;;;17.02;8.35;;;17.00;89.90;;;;;;5015423;28;20493;-75
2021/09/02 03:36:59;;;;;;;15.52;8.02;;;17.00;90.00;;;;;;5015338;28;20037;-75
2021/09/02 03:39:25;;;;;;;14.45;8.32;;;17.00;89.90;;;;;;5012481;28;20037;-75
2021/09/02 03:41:50;;;;;;;15.82;9.18;;;17.00;90.00;;;;;;5013781;28;20038;-75
2021/09/02 03:44:16;;;;;;;15.05;8.48;;;17.00;90.00;;;;;;5013929;28;20032;-74
2021/09/02 03:46:42;;;;;;;14.30;7.45;;;17.00;90.00;;;;;;5011727;28;20788;-75
2021/09/02 03:49:07;;;;;;;14.00;7.95;;;17.00;90.00;;;;;;4993898;28;20034;-75
2021/09/02 03:51:33;;;;;;;15.88;8.60;;;17.00;90.10;;;;;;4999700;28;20368;-74
2021/09/02 03:53:58;;;;;;;18.42;9.07;;;17.00;90.10;;;;;;5013515;28;20037;-75
2021/09/02 03:56:24;;;;;;;14.40;8.45;;;17.00;90.10;;;;;;5012054;28;20130;-75
2021/09/02 03:58:51;;;;;;;18.30;8.55;;;17.00;90.20;;;;;;5013363;28;20848;-75
2021/09/02 04:01:17;;;;;;;15.07;8.40;;;17.00;90.20;;;;;;5014600;28;20026;-74
2021/09/02 04:03:43;;;;;;;14.43;7.70;;;17.00;90.20;;;;;;5015077;28;20410;-74
2021/09/02 04:06:08;;;;;;;15.25;8.10;;;17.00;90.30;;;;;;5030164;28;20101;-74
2021/09/02 04:08:34;;;;;;;18.48;8.13;;;17.00;90.30;;;;;;5013423;28;20022;-75
2021/09/02 04:10:59;;;;;;;12.60;7.70;;;17.00;90.30;;;;;;5013362;28;20105;-74
2021/09/02 04:13:25;;;;;;;15.32;8.88;;;17.00;90.30;;;;;;5014852;28;20044;-74
2021/09/02 04:15:51;;;;;;;19.20;8.80;;;17.00;90.40;;;;;;5013262;28;20038;-75
2021/09/02 04:18:16;;;;;;;14.55;8.50;;;17.00;90.30;;;;;;5013139;28;20053;-75
2021/09/02 04:20:42;;;;;;;15.00;9.02;;;16.90;90.30;;;;;;5013512;28;20037;-75
2021/09/02 04:23:08;;;;;;;16.05;9.70;;;16.90;90.40;;;;;;5013492;28;20466;-75
2021/09/02 04:25:34;;;;;;;17.45;9.15;;;16.90;90.40;;;;;;5014494;28;20037;-75
2021/09/02 04:27:59;;;;;;;17.90;9.20;;;16.90;90.50;;;;;;5014484;28;20358;-76
2021/09/02 04:30:25;;;;;;;15.30;8.88;;;16.90;90.50;;;;;;5029747;28;20026;-75
2021/09/02 04:32:50;;;;;;;13.88;7.30;;;16.90;90.50;;;;;;5028976;28;20037;-75
2021/09/02 04:35:16;;;;;;;18.35;8.52;;;16.90;90.50;;;;;;5014208;28;20109;-75
2021/09/02 04:37:45;;;;;;;14.23;8.40;;;16.90;90.50;;;;;;4997048;28;20030;-75
2021/09/02 04:40:12;;;;;;;17.02;9.05;;;16.90;90.60;;;;;;5013239;28;20032;-75
2021/09/02 04:42:38;;;;;;;15.00;8.95;;;16.90;90.60;;;;;;5010627;28;20447;-75
2021/09/02 04:45:05;;;;;;;16.25;8.57;;;16.90;90.70;;;;;;5010525;28;20050;-75
2021/09/02 04:47:30;;;;;;;15.13;8.50;;;16.80;90.60;;;;;;5005405;28;20023;-75
2021/09/02 04:49:56;;;;;;;14.35;8.00;;;16.80;90.60;;;;;;5006964;28;20022;-75
2021/09/02 04:52:22;;;;;;;15.57;8.30;;;16.90;90.60;;;;;;5013859;28;20033;-76
2021/09/02 04:54:48;;;;;;;13.82;8.15;;;16.90;90.50;;;;;;5012964;28;20029;-76
2021/09/02 04:57:14;;;;;;;18.73;8.88;;;16.80;90.50;;;;;;5012669;28;20042;-76
2021/09/02 04:59:39;;;;;;;14.05;8.35;;;16.80;90.50;;;;;;5014455;28;20115;-76
2021/09/02 05:02:05;;;;;;;16.05;9.10;;;16.80;90.60;;;;;;5012029;28;20034;-75
2021/09/02 05:04:30;;;;;;;15.90;9.05;;;16.80;90.60;;;;;;5010848;28;20038;-76
2021/09/02 05:06:56;;;;;;;15.23;8.52;;;16.80;90.60;;;;;;4993175;28;20463;-75
2021/09/02 05:09:22;;;;;;;17.50;9.80;;;16.80;90.50;;;;;;4992916;28;20033;-76
2021/09/02 05:11:47;;;;;;;15.38;8.20;;;16.80;90.50;;;;;;5009489;28;20030;-76
2021/09/02 05:14:13;;;;;;;17.58;8.65;;;16.80;90.50;;;;;;4993489;28;20403;-75
2021/09/02 05:16:39;;;;;;;16.70;8.88;;;16.80;90.60;;;;;;5009111;28;20126;-75
2021/09/02 05:19:04;;;;;;;19.75;9.60;;;16.80;90.60;;;;;;5007184;28;20073;-76
2021/09/02 05:21:30;;;;;;;17.15;8.80;;;16.80;90.60;;;;;;5013229;28;20033;-76
2021/09/02 05:23:55;;;;;;;14.88;8.38;;;16.80;90.60;;;;;;5005880;28;20046;-76
2021/09/02 05:26:21;;;;;;;15.23;8.30;;;16.80;90.60;;;;;;5012276;28;20045;-76
2021/09/02 05:28:47;;;;;;;18.35;9.48;;;16.80;90.60;;;;;;5012996;28;20473;-75
2021/09/02 05:31:13;;;;;;;16.55;8.73;;;16.80;90.90;;;;;;5001081;28;20022;-76
2021/09/02 05:33:38;;;;;;;18.90;8.95;;;16.70;90.60;;;;;;5013527;28;20029;-76
2021/09/02 05:36:04;;;;;;;23.52;9.70;;;16.70;90.70;;;;;;5017670;28;20030;-76
2021/09/02 05:38:30;;;;;;;20.52;9.05;;;16.80;90.70;;;;;;5013695;28;20036;-76
2021/09/02 05:40:56;;;;;;;18.83;9.40;;;16.80;91.00;;;;;;4978879;28;20030;-76
2021/09/02 05:43:22;;;;;;;15.15;8.15;;;16.80;90.70;;;;;;5012542;28;20026;-75
2021/09/02 05:45:48;;;;;;;19.00;8.80;;;16.80;90.70;;;;;;5016536;28;20022;-75
2021/09/02 05:48:13;;;;;;;21.08;8.93;;;16.80;90.70;;;;;;5018165;28;20022;-75
2021/09/02 05:50:39;;;;;;;16.65;7.75;;;16.80;90.70;;;;;;5017485;28;20022;-76
2021/09/02 05:53:05;;;;;;;15.93;7.78;;;16.80;90.70;;;;;;5016715;28;20115;-75
2021/09/02 05:55:31;;;;;;;17.17;7.55;;;16.80;90.70;;;;;;5014341;28;20389;-79
2021/09/02 05:58:02;;;;;;;17.15;8.90;;;16.90;90.70;;;;;;5013751;28;20088;-75
2021/09/02 06:00:28;;;;;;;17.13;7.95;;;16.90;90.60;;;;;;5013206;28;20017;-79
2021/09/02 06:02:53;;;;;;;12.15;7.35;;;16.90;90.60;;;;;;5016590;28;20140;-75
2021/09/02 06:05:19;;;;;;;15.40;7.68;;;16.90;90.60;;;;;;5015971;28;20156;-75
2021/09/02 06:07:45;;;;;;;15.95;8.57;;;17.00;90.60;;;;;;5004927;28;20048;-79
2021/09/02 06:10:11;;;;;;;15.88;7.07;;;17.00;90.50;;;;;;5032247;28;20472;-80
2021/09/02 06:12:37;;;;;;;15.85;6.97;;;17.00;90.50;;;;;;5016799;28;20034;-79
2021/09/02 06:15:06;;;;;;;15.38;7.35;;;17.10;90.40;;;;;;5017131;28;20101;-80
2021/09/02 06:17:31;;;;;;;13.52;6.35;;;17.10;90.30;;;;;;5016539;28;20117;-81
2021/09/02 06:19:57;;;;;;;16.05;6.50;;;17.10;90.30;;;;;;4983523;28;20121;-79
2021/09/02 06:22:26;;;;;;;12.15;6.85;;;17.10;90.20;;;;;;5006546;28;20146;-79
2021/09/02 06:24:51;;;;;;;14.73;7.47;;;17.10;90.20;;;;;;5016785;28;20026;-78
2021/09/02 06:27:17;;;;;;;17.65;7.05;;;17.10;90.10;;;;;;5011482;28;20478;-81
2021/09/02 06:29:42;;;;;;;16.50;7.03;;;17.10;90.10;;;;;;5016683;28;20026;-79
2021/09/02 06:32:08;;;;;;;14.48;5.97;;;17.10;90.10;;;;;;5016643;28;20037;-79
2021/09/02 06:34:34;;;;;;;15.30;6.10;;;17.10;90.10;;;;;;5001108;28;20498;-79
2021/09/02 06:36:59;;;;;;;12.63;5.95;;;17.10;90.00;;;;;;5014875;28;20062;-77
2021/09/02 06:39:26;;;;;;;12.18;5.82;;;17.20;90.00;;;;;;4998241;28;20038;-76
2021/09/02 06:41:52;;;;;;;12.15;6.32;;;17.20;90.00;;;;;;5016169;28;20377;-76
2021/09/02 06:44:17;;;;;;;16.48;6.45;;;17.30;89.80;;;;;;4998612;28;20117;-77
2021/09/02 06:46:43;;;;;;;12.70;6.00;;;17.30;89.80;;;;;;5015152;28;20034;-76
2021/09/02 06:49:08;;;;;;;11.50;5.40;;;17.30;89.70;;;;;;5016501;28;20036;-77
2021/09/02 06:51:36;;;;;;;10.32;4.93;;;17.30;89.60;;;;;;4998978;28;20524;-77
2021/09/02 06:54:02;;;;;;;12.05;5.15;;;17.30;89.50;;;;;;5014851;28;20084;-77
2021/09/02 06:56:28;;;;;;;10.77;4.85;;;17.30;89.30;;;;;;5015578;28;20117;-77
2021/09/02 06:58:53;;;;;;;10.10;4.47;;;17.30;89.20;;;;;;4998622;28;20176;-77
2021/09/02 07:01:19;;;;;;;18.00;6.78;;;17.30;89.00;;;;;;4998854;28;20605;-77
2021/09/02 07:03:45;;;;;;;13.15;4.45;;;17.30;89.00;;;;;;5015883;28;20033;-77
2021/09/02 07:06:10;;;;;;;8.68;4.25;;;17.30;88.90;;;;;;5014480;28;20048;-76
2021/09/02 07:08:36;;;;;;;11.45;5.10;;;17.30;88.50;;;;;;5014477;28;20025;-76
2021/09/02 07:11:03;;;;;;;13.57;4.68;;;17.30;88.20;;;;;;5014720;28;20386;-77
2021/09/02 07:13:29;;;;;;;8.32;4.63;;;17.30;87.90;;;;;;5016073;28;20052;-76
2021/09/02 07:15:55;;;;;;;12.52;5.03;;;17.20;87.70;;;;;;5017641;28;20046;-77
2021/09/02 07:18:20;;;;;;;12.25;4.43;;;17.20;87.70;;;;;;5014536;28;20046;-76
2021/09/02 07:20:46;;;;;;;8.57;3.58;;;17.20;87.60;;;;;;5015804;28;20084;-75
2021/09/02 07:23:11;;;;;;;11.45;4.53;;;17.20;87.50;;;;;;5014461;28;20438;-77
2021/09/02 07:25:37;;;;;;;10.75;4.78;;;17.20;87.40;;;;;;5015311;28;20030;-76
2021/09/02 07:28:03;;;;;;;9.48;4.18;;;17.30;87.40;;;;;;5030044;28;20105;-76
2021/09/02 07:30:28;;;;;;;10.05;4.15;;;17.30;87.20;;;;;;5015371;28;20034;-75
2021/09/02 07:32:54;;;;;;;12.80;4.88;;;17.30;87.60;;;;;;5014135;28;20069;-77
2021/09/02 07:35:20;;;;;;;10.07;4.95;;;17.30;86.80;;;;;;5014321;28;20025;-77
2021/09/02 07:37:45;;;;;;;9.43;4.22;;;17.40;86.70;;;;;;5014449;28;20064;-77
2021/09/02 07:40:12;;;;;;;9.07;4.60;;;17.40;86.40;;;;;;5015789;28;20022;-77
2021/09/02 07:42:37;;;;;;;13.93;5.10;;;17.40;86.30;;;;;;5014041;28;20034;-77
2021/09/02 07:45:04;;;;;;;10.15;5.32;;;17.40;86.30;;;;;;4997930;28;20435;-76
2021/09/02 07:47:31;;;;;;;10.05;4.85;;;17.40;86.10;;;;;;5015119;28;20451;-76
2021/09/02 07:49:57;;;;;;;12.23;4.72;;;17.40;86.10;;;;;;5015087;28;20025;-77
2021/09/02 07:52:22;;;;;;;9.70;4.57;;;17.50;85.90;;;;;;5013868;28;20030;-77
2021/09/02 07:54:48;;;;;;;10.90;4.68;;;17.50;85.80;;;;;;4997407;28;20026;-77
2021/09/02 07:57:14;;;;;;;10.23;4.25;;;17.60;85.70;;;;;;5015227;28;20026;-77
2021/09/02 07:59:40;;;;;;;8.77;4.43;;;17.60;85.70;;;;;;5014252;28;20030;-77
2021/09/02 08:02:06;;;;;;;8.75;4.15;;;17.60;85.60;;;;;;4997499;28;20037;-77
2021/09/02 08:04:32;;;;;;;10.68;4.38;;;17.60;85.40;;;;;;5015014;28;20026;-77
2021/09/02 08:06:57;;;;;;;11.60;4.75;;;17.70;85.50;;;;;;4996847;28;20030;-77
2021/09/02 08:09:23;;;;;;;7.72;3.42;;;17.80;85.40;;;;;;5013018;28;20037;-76
2021/09/02 08:11:48;;;;;;;11.10;4.30;;;17.90;85.30;;;;;;5013374;28;20038;-76
2021/09/02 08:14:15;;;;;;;7.22;3.58;;;18.00;85.30;;;;;;5014539;28;20084;-77
2021/09/02 08:16:40;;;;;;;8.30;4.32;;;18.10;85.10;;;;;;5013311;28;20124;-76
2021/09/02 08:19:06;;;;;;;8.40;4.00;;;18.20;84.70;;;;;;5012911;28;20142;-77
2021/09/02 08:21:32;;;;;;;8.95;4.25;;;18.30;84.40;;;;;;5013432;28;20045;-77
2021/09/02 08:23:58;;;;;;;9.25;4.32;;;18.40;84.10;;;;;;4996987;28;20029;-77
2021/09/02 08:26:26;;;;;;;10.65;4.75;;;18.40;83.90;;;;;;5014301;28;20033;-78
2021/09/02 08:28:52;;;;;;;10.40;4.38;;;18.60;83.60;;;;;;4997419;28;20036;-77
2021/09/02 08:31:18;;;;;;;8.10;3.72;;;18.70;83.20;;;;;;5013346;28;20022;-77
2021/09/02 08:33:44;;;;;;;9.38;4.43;;;18.90;82.70;;;;;;5013458;28;20026;-76
2021/09/02 08:36:09;;;;;;;9.85;4.60;;;19.10;82.20;;;;;;5014486;28;20034;-76
2021/09/02 08:38:40;;;;;;;11.32;4.30;;;19.20;81.50;;;;;;4996350;28;20045;-76
2021/09/02 08:41:06;;;;;;;9.82;4.60;;;19.30;80.70;;;;;;5014195;28;20021;-76
2021/09/02 08:43:33;;;;;;;12.73;4.95;;;19.40;80.00;;;;;;5014653;28;20378;-76
2021/09/02 08:45:59;;;;;;;9.80;4.55;;;19.50;79.90;;;;;;5013907;28;20030;-77
2021/09/02 08:48:25;;;;;;;9.52;4.85;;;19.60;79.00;;;;;;5022935;28;20036;-76
2021/09/02 08:50:52;;;;;;;10.05;5.00;;;19.80;78.30;;;;;;5018209;28;20026;-77
2021/09/02 08:53:17;;;;;;;10.68;4.63;;;19.80;78.00;;;;;;5029117;28;20026;-77
2021/09/02 08:55:43;;;;;;;11.93;4.55;;;19.90;77.50;;;;;;4996669;28;20083;-77
2021/09/02 08:58:09;;;;;;;11.40;4.28;;;20.00;77.30;;;;;;4996817;28;20022;-77
2021/09/02 09:00:34;;;;;;;9.65;4.63;;;20.10;76.80;;;;;;5029348;28;20030;-77
2021/09/02 09:03:03;;;;;;;10.63;4.95;;;20.20;76.30;;;;;;5012583;28;20526;-77
2021/09/02 09:05:33;;;;;;;9.85;4.45;;;20.20;75.60;;;;;;5013892;28;20025;-76
2021/09/02 09:08:00;;;;;;;10.75;4.82;;;20.20;75.10;;;;;;5013783;28;20057;-76
2021/09/02 09:10:29;;;;;;;10.13;4.53;;;20.30;74.90;;;;;;4996603;28;20501;-76
2021/09/02 09:12:59;;;;;;;7.30;4.07;;;20.40;74.50;;;;;;5012884;28;20030;-76
2021/09/02 09:15:34;;;;;;;7.72;4.20;;;20.40;74.10;;;;;;5012471;28;20489;-76
2021/09/02 09:18:17;;;;;;;8.98;4.15;;;20.60;73.80;;;;;;5012262;28;20041;-76
2021/09/02 09:20:44;;;;;;;9.60;4.40;;;20.70;73.20;;;;;;5013993;28;20052;-76
2021/09/02 09:23:10;;;;;;;9.15;3.72;;;20.80;73.40;;;;;;5029275;28;20037;-77
2021/09/02 09:25:36;;;;;;;9.82;3.88;;;20.90;71.90;;;;;;5013715;28;20026;-77
2021/09/02 09:28:02;;;;;;;8.70;4.43;;;20.90;71.20;;;;;;5013866;28;20128;-76
2021/09/02 09:30:31;;;;;;;6.90;3.28;;;21.00;71.00;;;;;;5012496;28;20026;-76
2021/09/02 09:33:05;;;;;;;10.68;4.35;;;21.10;70.70;;;;;;5012716;28;20026;-77
2021/09/02 09:35:32;;;;;;;11.07;4.30;;;21.10;70.40;;;;;;5012728;28;20057;-77
2021/09/02 09:38:09;;;;;;;11.55;5.22;;;21.20;70.50;;;;;;5012016;28;20026;-77
2021/09/02 09:40:40;;;;;;;8.73;4.25;;;21.20;69.80;;;;;;5027456;28;20118;-76
2021/09/02 09:43:14;;;;;;;9.43;4.75;;;21.30;69.90;;;;;;5013498;28;20034;-77
2021/09/02 09:45:44;;;;;;;8.43;4.07;;;21.40;69.40;;;;;;5011792;28;20386;-77
2021/09/02 09:48:34;;;;;;;9.40;4.35;;;21.40;68.80;;;;;;4993745;28;20081;-77
2021/09/02 09:51:10;;;;;;;10.25;4.45;;;21.50;68.60;;;;;;5013291;28;20026;-77
2021/09/02 09:53:36;;;;;;;10.23;4.30;;;21.50;68.30;;;;;;5013416;28;20107;-77
2021/09/02 09:56:03;;;;;;;10.20;4.47;;;21.60;68.20;;;;;;5012263;28;20030;-76
2021/09/02 09:58:29;;;;;;;9.07;4.30;;;21.60;67.90;;;;;;5013379;28;20030;-76
2021/09/02 10:00:57;;;;;;;9.50;4.78;;;21.70;67.60;;;;;;5013384;28;20080;-76
2021/09/02 10:03:23;;;;;;;11.32;4.95;;;21.80;66.90;;;;;;5013497;28;20018;-77
2021/09/02 10:05:49;;;;;;;9.15;3.92;;;21.80;66.50;;;;;;4996056;28;20309;-77
2021/09/02 10:08:16;;;;;;;9.60;4.10;;;21.80;66.30;;;;;;5013450;28;20068;-76
2021/09/02 10:10:42;;;;;;;7.25;3.60;;;21.90;66.10;;;;;;5013244;28;20139;-76
2021/09/02 10:13:09;;;;;;;8.82;4.20;;;22.00;66.20;;;;;;5012310;28;20053;-77
2021/09/02 10:15:35;;;;;;;10.88;4.95;;;22.20;66.00;;;;;;5013322;28;20029;-76
2021/09/02 10:18:03;;;;;;;7.88;4.32;;;22.50;65.60;;;;;;5013174;28;20108;-76
2021/09/02 10:20:33;;;;;;;11.48;4.18;;;23.00;65.20;;;;;;5011840;28;20122;-77
2021/09/02 10:23:00;;;;;;;7.70;3.28;;;23.50;64.30;;;;;;5006012;28;20410;-77
2021/09/02 10:25:33;;;;;;;7.97;4.07;;;23.90;63.80;;;;;;4997485;28;20104;-75
2021/09/02 10:28:04;;;;;;;8.25;3.33;;;24.60;62.60;;;;;;5010940;28;20038;-75
2021/09/02 10:30:31;;;;;;;7.45;3.55;;;25.30;62.60;;;;;;5011877;28;20037;-78
2021/09/02 10:32:58;;;;;;;6.70;3.00;;;26.00;61.60;;;;;;4999247;28;20458;-77
2021/09/02 10:35:24;;;;;;;7.22;2.95;;;26.70;60.60;;;;;;4998874;28;20030;-75
2021/09/02 10:37:53;;;;;;;5.88;2.72;;;27.40;58.70;;;;;;5015451;28;20120;-75
2021/09/02 10:40:19;;;;;;;9.57;2.83;;;27.90;57.10;;;;;;5016393;28;20105;-76
2021/09/02 10:42:48;;;;;;;6.25;2.92;;;28.60;56.60;;;;;;5014957;28;20121;-75
2021/09/02 10:45:35;;;;;;;7.05;3.58;;;29.00;54.80;;;;;;5008413;28;20053;-75
2021/09/02 10:48:05;;;;;;;5.85;3.08;;;28.90;52.60;;;;;;4995455;28;20411;-75
2021/09/02 10:50:39;;;;;;;8.25;3.40;;;28.70;52.10;;;;;;5010156;28;20024;-75
2021/09/02 10:53:14;;;;;;;10.65;3.80;;;28.40;51.10;;;;;;5014921;28;20394;-76
2021/09/02 10:55:49;;;;;;;5.60;2.95;;;28.10;51.00;;;;;;5011811;28;20445;-76
2021/09/02 10:58:49;;;;;;;6.72;3.00;;;28.20;51.20;;;;;;4999582;28;20079;-77
2021/09/02 11:01:41;;;;;;;6.75;3.00;;;28.60;50.50;;;;;;5015734;28;20026;-75
2021/09/02 11:04:12;;;;;;;7.22;2.85;;;29.20;49.60;;;;;;5015991;28;20383;-78
2021/09/02 11:06:49;;;;;;;5.13;2.97;;;29.20;50.00;;;;;;4998413;28;20076;-77
2021/09/02 11:09:28;;;;;;;7.85;3.22;;;29.50;49.20;;;;;;5015099;28;20046;-79
2021/09/02 11:11:53;;;;;;;8.43;3.58;;;30.10;49.00;;;;;;5015767;28;20438;-79
2021/09/02 11:14:19;;;;;;;5.20;2.60;;;30.50;48.90;;;;;;5015533;28;20060;-77
2021/09/02 11:16:44;;;;;;;7.43;2.88;;;30.60;48.00;;;;;;5013990;28;20085;-78
2021/09/02 11:19:10;;;;;;;6.57;2.75;;;30.50;47.30;;;;;;4998045;28;20054;-79
2021/09/02 11:21:36;;;;;;;7.03;3.25;;;30.50;46.70;;;;;;5014321;28;20037;-79
2021/09/02 11:24:06;;;;;;;7.30;2.92;;;30.30;45.90;;;;;;5015566;28;20038;-79
2021/09/02 11:26:41;;;;;;;8.35;3.72;;;30.30;45.80;;;;;;5014497;28;20010;-79
2021/09/02 11:29:08;;;;;;;7.20;3.22;;;30.20;45.70;;;;;;5014402;28;20029;-79
2021/09/02 11:31:34;;;;;;;8.38;2.95;;;30.20;45.50;;;;;;5015534;28;20034;-78
2021/09/02 11:34:00;;;;;;;7.57;3.33;;;29.90;45.50;;;;;;5015301;28;20084;-79
2021/09/02 11:36:26;;;;;;;6.93;2.78;;;30.10;45.90;;;;;;5015298;28;20065;-78
2021/09/02 11:39:08;;;;;;;5.28;2.67;;;30.30;45.50;;;;;;5014081;28;20033;-78
2021/09/02 11:41:35;;;;;;;6.85;2.97;;;30.30;44.70;;;;;;4999034;28;20069;-77
2021/09/02 11:44:01;;;;;;;7.28;3.38;;;30.10;44.40;;;;;;5013462;28;20037;-78
2021/09/02 11:46:27;;;;;;;6.90;2.95;;;29.90;44.50;;;;;;5013596;28;20478;-77
2021/09/02 11:48:55;;;;;;;7.03;3.20;;;29.70;44.90;;;;;;5013639;28;20029;-78
2021/09/02 11:51:24;;;;;;;7.20;3.22;;;29.70;45.30;;;;;;5014091;28;20068;-79
2021/09/02 11:54:07;;;;;;;5.50;2.80;;;30.10;45.20;;;;;;5002157;28;20090;-77
2021/09/02 11:56:33;;;;;;;6.50;2.77;;;30.50;44.30;;;;;;4997474;28;20376;-77
2021/09/02 11:59:00;;;;;;;5.25;2.75;;;30.60;44.50;;;;;;5009467;28;20104;-77
2021/09/02 12:01:26;;;;;;;5.55;2.65;;;30.60;44.40;;;;;;5010075;28;20362;-77
2021/09/02 12:03:53;;;;;;;5.03;2.75;;;30.70;44.40;;;;;;5013551;28;20022;-77
2021/09/02 12:06:28;;;;;;;6.00;2.53;;;30.80;44.40;;;;;;5013222;28;20023;-78
2021/09/02 12:08:56;;;;;;;4.82;2.25;;;31.00;44.20;;;;;;5004136;28;20506;-78
2021/09/02 12:11:22;;;;;;;5.82;2.50;;;31.10;44.10;;;;;;4999389;28;20065;-77
2021/09/02 12:13:48;;;;;;;6.18;3.10;;;31.00;44.50;;;;;;5010450;28;20030;-77
2021/09/02 12:16:16;;;;;;;6.43;2.58;;;30.90;43.80;;;;;;5014793;28;20043;-78
2021/09/02 12:18:44;;;;;;;7.50;2.97;;;30.80;43.70;;;;;;5014481;28;20418;-76
2021/09/02 12:21:14;;;;;;;5.70;2.78;;;30.80;43.70;;;;;;5014537;28;20065;-76
2021/09/02 12:24:07;;;;;;;5.82;2.22;;;30.70;43.50;;;;;;5013940;28;20026;-76
2021/09/02 12:26:48;;;;;;;6.22;2.47;;;30.60;43.30;;;;;;5014365;28;20049;-76
2021/09/02 12:29:19;;;;;;;6.45;2.42;;;30.40;43.60;;;;;;5014188;28;20045;-76
2021/09/02 12:31:46;;;;;;;6.35;2.33;;;30.20;43.90;;;;;;5014449;28;20084;-74
2021/09/02 12:34:19;;;;;;;5.82;2.90;;;29.90;44.20;;;;;;5014303;28;20022;-75
2021/09/02 12:36:56;;;;;;;4.50;2.33;;;29.80;44.60;;;;;;5013054;28;20041;-74
2021/09/02 12:39:26;;;;;;;8.70;2.63;;;29.80;44.90;;;;;;5014362;28;20358;-74
2021/09/02 12:41:57;;;;;;;5.55;2.78;;;29.90;44.80;;;;;;5013933;28;20064;-74